Time;durP1;ratioP1;P1;durP2;ratioP2;P2;SDS_P1;SDS_P2;PMS_P1;PMS_P2;Temp;Humidity;BMP_temperature;BMP_pressure;BME280_temperature;BME280_humidity;BME280_pressure;Samples;Min_cycle;Max_cycle;Signal;HPM_P1;HPM_P2
2021/04/09 00:01:22;;;;;;;9.93;2.50;;;;;;;;;;5114391;28;20036;-55
2021/04/09 00:03:49;;;;;;;5.40;3.20;;;;;;;;;;5114565;28;20027;-55
2021/04/09 00:06:16;;;;;;;3.90;2.93;;;;;;;;;;5114484;28;20545;-55
2021/04/09 00:08:42;;;;;;;6.27;3.57;;;;;;;;;;5114426;28;20024;-57
2021/04/09 00:11:09;;;;;;;9.80;3.67;;;;;;;;;;5114226;28;20039;-57
2021/04/09 00:13:36;;;;;;;5.33;3.53;;;;;;;;;;5114311;28;20073;-57
2021/04/09 00:16:03;;;;;;;5.67;3.77;;;;;;;;;;5114082;28;20027;-58
2021/04/09 00:18:29;;;;;;;5.90;3.87;;;;;;;;;;5114120;28;20020;-57
2021/04/09 00:20:56;;;;;;;10.80;4.33;;;;;;;;;;5114035;28;20028;-61
2021/04/09 00:23:23;;;;;;;12.67;4.50;;;;;;;;;;5114076;28;20024;-56
2021/04/09 00:25:50;;;;;;;10.00;4.80;;;;;;;;;;5113970;28;20036;-55
2021/04/09 00:28:17;;;;;;;6.67;4.37;;;;;;;;;;5113864;28;20151;-56
2021/04/09 00:30:43;;;;;;;7.57;4.83;;;;;;;;;;5113804;28;20392;-57
2021/04/09 00:33:10;;;;;;;10.63;4.77;;;;;;;;;;5113088;28;20149;-57
2021/04/09 00:35:37;;;;;;;8.27;4.77;;;;;;;;;;5113849;28;20027;-57
2021/04/09 00:38:04;;;;;;;11.13;5.07;;;;;;;;;;5113878;28;20020;-59
2021/04/09 00:40:31;;;;;;;12.80;5.07;;;;;;;;;;5113822;28;20517;-58
2021/04/09 00:42:58;;;;;;;10.63;4.97;;;;;;;;;;5113744;28;20016;-56
2021/04/09 00:45:24;;;;;;;12.83;5.90;;;;;;;;;;5113597;28;20038;-57
2021/04/09 00:47:51;;;;;;;8.07;5.50;;;;;;;;;;5113588;28;20352;-57
2021/04/09 00:50:18;;;;;;;10.57;5.33;;;;;;;;;;5113637;28;20058;-57
2021/04/09 00:52:45;;;;;;;9.20;4.73;;;;;;;;;;5113442;28;20095;-57
2021/04/09 00:55:13;;;;;;;11.33;5.37;;;;;;;;;;5113594;28;20024;-57
2021/04/09 00:57:41;;;;;;;7.13;5.10;;;;;;;;;;5113446;28;20028;-58
2021/04/09 01:00:09;;;;;;;8.13;4.90;;;;;;;;;;5113500;28;20592;-57
2021/04/09 01:02:36;;;;;;;10.37;5.20;;;;;;;;;;5113307;28;20479;-58
2021/04/09 01:05:05;;;;;;;10.07;6.07;;;;;;;;;;5113326;28;20058;-57
2021/04/09 01:07:32;;;;;;;11.77;6.50;;;;;;;;;;5113450;28;20134;-57
2021/04/09 01:09:58;;;;;;;7.87;5.93;;;;;;;;;;5113354;28;20382;-57
2021/04/09 01:12:25;;;;;;;9.63;6.33;;;;;;;;;;5113331;28;20031;-57
2021/04/09 01:14:52;;;;;;;13.20;6.43;;;;;;;;;;5113321;28;20110;-56
2021/04/09 01:17:55;;;;;;;12.53;5.90;;;;;;;;;;5113342;28;20016;-54
2021/04/09 01:20:47;;;;;;;11.17;6.17;;;;;;;;;;5010695;28;20079;-55
2021/04/09 01:23:25;;;;;;;10.53;5.50;;;;;;;;;;5108523;28;20528;-57
2021/04/09 01:26:10;;;;;;;8.77;5.87;;;;;;;;;;5113096;28;20040;-57
2021/04/09 01:29:03;;;;;;;8.35;5.53;;;;;;;;;;5113292;28;20478;-55
2021/04/09 01:31:42;;;;;;;7.73;4.97;;;;;;;;;;5074242;28;20509;-55
2021/04/09 01:34:10;;;;;;;10.27;5.03;;;;;;;;;;5113147;28;20036;-55
2021/04/09 01:36:56;;;;;;;7.27;4.63;;;;;;;;;;5113108;28;20035;-55
2021/04/09 01:39:25;;;;;;;8.13;4.37;;;;;;;;;;5113130;28;20059;-57
2021/04/09 01:41:54;;;;;;;8.53;4.93;;;;;;;;;;5094825;28;20028;-55
2021/04/09 01:44:23;;;;;;;7.50;4.67;;;;;;;;;;5115824;28;20028;-55
2021/04/09 01:46:51;;;;;;;10.53;5.87;;;;;;;;;;5117082;28;20439;-57
2021/04/09 01:49:19;;;;;;;9.43;5.33;;;;;;;;;;5117091;28;20024;-55
2021/04/09 01:51:46;;;;;;;8.43;5.20;;;;;;;;;;5116876;28;20172;-55
2021/04/09 01:54:14;;;;;;;13.57;5.57;;;;;;;;;;5116953;28;20492;-55
2021/04/09 01:56:41;;;;;;;12.00;5.90;;;;;;;;;;5116965;28;20047;-55
2021/04/09 01:59:08;;;;;;;15.33;5.93;;;;;;;;;;5116863;28;20035;-55
2021/04/09 02:01:36;;;;;;;7.87;5.30;;;;;;;;;;5116780;28;20099;-55
2021/04/09 02:04:03;;;;;;;6.90;4.80;;;;;;;;;;5116675;28;20059;-55
2021/04/09 02:06:31;;;;;;;7.37;5.20;;;;;;;;;;5116758;28;20032;-55
2021/04/09 02:08:58;;;;;;;10.63;5.93;;;;;;;;;;5116700;28;20032;-55
2021/04/09 02:11:25;;;;;;;7.23;5.10;;;;;;;;;;5116586;28;20432;-55
2021/04/09 02:13:52;;;;;;;8.93;5.50;;;;;;;;;;5116667;28;20019;-55
2021/04/09 02:16:20;;;;;;;11.27;5.57;;;;;;;;;;5116530;28;20024;-55
2021/04/09 02:18:47;;;;;;;13.77;7.03;;;;;;;;;;5116514;28;20078;-55
2021/04/09 02:21:14;;;;;;;11.57;5.97;;;;;;;;;;5116464;28;20181;-54
2021/04/09 02:23:40;;;;;;;9.90;5.50;;;;;;;;;;5116346;28;20028;-55
2021/04/09 02:26:07;;;;;;;14.67;6.90;;;;;;;;;;5116458;28;20033;-55
2021/04/09 02:28:35;;;;;;;12.67;6.50;;;;;;;;;;5116276;28;20445;-57
2021/04/09 02:31:03;;;;;;;16.77;7.83;;;;;;;;;;5116111;28;20024;-55
2021/04/09 02:33:36;;;;;;;11.47;6.87;;;;;;;;;;5115840;28;20056;-55
2021/04/09 02:36:10;;;;;;;21.47;6.90;;;;;;;;;;5116211;28;20059;-55
2021/04/09 02:38:37;;;;;;;11.65;6.07;;;;;;;;;;5116262;28;20024;-55
2021/04/09 02:41:05;;;;;;;12.90;6.60;;;;;;;;;;5116039;28;20024;-55
2021/04/09 02:43:32;;;;;;;9.77;5.77;;;;;;;;;;5116073;28;20157;-55
2021/04/09 02:45:59;;;;;;;12.80;6.37;;;;;;;;;;5115849;28;20443;-55
2021/04/09 02:48:34;;;;;;;12.50;6.43;;;;;;;;;;5116275;28;20356;-55
2021/04/09 02:51:04;;;;;;;10.43;6.57;;;;;;;;;;5116143;28;20026;-55
2021/04/09 02:53:34;;;;;;;11.43;5.40;;;;;;;;;;5115909;28;20027;-55
2021/04/09 02:56:12;;;;;;;11.90;5.93;;;;;;;;;;5115207;28;20023;-55
2021/04/09 02:58:39;;;;;;;8.60;5.53;;;;;;;;;;5115845;28;20020;-55
2021/04/09 03:01:06;;;;;;;7.93;5.40;;;;;;;;;;5115567;28;20030;-55
2021/04/09 03:03:33;;;;;;;11.80;6.03;;;;;;;;;;5115634;28;20023;-55
2021/04/09 03:06:00;;;;;;;12.00;6.07;;;;;;;;;;5115477;28;20118;-55
2021/04/09 03:08:27;;;;;;;8.83;5.27;;;;;;;;;;5115576;28;20030;-55
2021/04/09 03:10:54;;;;;;;8.90;5.23;;;;;;;;;;5115431;28;20069;-55
2021/04/09 03:13:20;;;;;;;7.83;5.17;;;;;;;;;;5115508;28;20103;-55
2021/04/09 03:15:50;;;;;;;7.90;5.07;;;;;;;;;;5115513;28;20016;-54
2021/04/09 03:18:18;;;;;;;6.57;5.27;;;;;;;;;;5115259;28;20024;-54
2021/04/09 03:20:45;;;;;;;7.80;5.40;;;;;;;;;;5115201;28;20102;-54
2021/04/09 03:23:11;;;;;;;8.77;4.80;;;;;;;;;;5115322;28;20133;-54
2021/04/09 03:25:38;;;;;;;8.93;5.40;;;;;;;;;;5115180;28;20111;-54
2021/04/09 03:28:06;;;;;;;7.87;5.30;;;;;;;;;;5115223;28;20028;-54
2021/04/09 03:30:33;;;;;;;8.13;5.00;;;;;;;;;;5115102;28;20027;-55
2021/04/09 03:32:59;;;;;;;8.43;5.23;;;;;;;;;;5114815;27;20086;-55
2021/04/09 03:35:26;;;;;;;9.70;5.77;;;;;;;;;;5115025;28;20028;-55
2021/04/09 03:37:53;;;;;;;17.57;6.60;;;;;;;;;;5114983;28;20539;-55
2021/04/09 03:40:20;;;;;;;7.17;5.80;;;;;;;;;;5114921;28;20023;-55
2021/04/09 03:42:47;;;;;;;8.73;6.70;;;;;;;;;;5114845;28;20427;-55
2021/04/09 03:45:14;;;;;;;10.80;6.00;;;;;;;;;;5114860;28;20144;-55
2021/04/09 03:47:41;;;;;;;8.97;5.53;;;;;;;;;;5114731;28;20412;-55
2021/04/09 03:50:08;;;;;;;9.67;5.97;;;;;;;;;;5114672;28;20039;-55
2021/04/09 03:52:38;;;;;;;8.33;5.27;;;;;;;;;;5114603;28;20020;-55
2021/04/09 03:55:06;;;;;;;8.57;5.60;;;;;;;;;;5114613;28;20490;-55
2021/04/09 03:57:33;;;;;;;10.63;5.80;;;;;;;;;;5114698;28;20374;-55
2021/04/09 04:00:00;;;;;;;11.53;5.50;;;;;;;;;;5114665;28;20443;-55
2021/04/09 04:02:27;;;;;;;6.37;5.20;;;;;;;;;;5114393;28;20030;-55
2021/04/09 04:04:53;;;;;;;9.63;6.07;;;;;;;;;;5114433;28;20035;-55
2021/04/09 04:07:20;;;;;;;7.37;6.20;;;;;;;;;;5113280;28;20020;-55
2021/04/09 04:09:47;;;;;;;6.63;4.90;;;;;;;;;;5114356;28;20102;-55
2021/04/09 04:12:13;;;;;;;6.93;5.27;;;;;;;;;;5114340;28;20024;-55
2021/04/09 04:14:40;;;;;;;6.47;5.07;;;;;;;;;;5114254;28;20053;-55
2021/04/09 04:17:07;;;;;;;6.47;4.53;;;;;;;;;;5114161;28;20020;-55
2021/04/09 04:19:34;;;;;;;8.10;5.30;;;;;;;;;;5114111;28;20379;-55
2021/04/09 04:22:01;;;;;;;10.67;6.17;;;;;;;;;;5114059;28;20023;-55
2021/04/09 04:24:27;;;;;;;10.33;6.23;;;;;;;;;;5114005;28;20390;-55
2021/04/09 04:26:54;;;;;;;8.50;5.87;;;;;;;;;;5114058;28;20023;-55
2021/04/09 04:29:21;;;;;;;7.70;5.10;;;;;;;;;;5113971;28;20028;-55
2021/04/09 04:31:48;;;;;;;8.33;5.30;;;;;;;;;;5113545;27;20023;-55
2021/04/09 04:34:14;;;;;;;10.53;6.87;;;;;;;;;;5113985;28;20088;-55
2021/04/09 04:36:41;;;;;;;11.27;7.20;;;;;;;;;;5113817;28;20377;-55
2021/04/09 04:39:08;;;;;;;10.07;6.90;;;;;;;;;;5113878;28;20080;-55
2021/04/09 04:41:35;;;;;;;10.27;6.40;;;;;;;;;;5113682;28;20024;-55
2021/04/09 04:44:02;;;;;;;12.30;6.93;;;;;;;;;;5113738;28;20064;-55
2021/04/09 04:46:28;;;;;;;10.00;6.30;;;;;;;;;;5113730;28;20042;-55
2021/04/09 04:48:55;;;;;;;9.90;6.30;;;;;;;;;;5113686;28;20106;-55
2021/04/09 04:51:22;;;;;;;10.43;7.33;;;;;;;;;;5113633;28;20032;-55
2021/04/09 04:53:49;;;;;;;9.90;5.70;;;;;;;;;;5113598;28;20056;-55
2021/04/09 04:56:15;;;;;;;8.70;5.63;;;;;;;;;;5113604;28;20034;-55
2021/04/09 04:58:42;;;;;;;9.43;6.03;;;;;;;;;;5113521;28;20015;-56
2021/04/09 05:01:09;;;;;;;8.80;6.03;;;;;;;;;;5113350;28;20027;-55
2021/04/09 05:03:36;;;;;;;7.03;5.23;;;;;;;;;;5113533;28;20019;-55
2021/04/09 05:06:03;;;;;;;8.43;5.47;;;;;;;;;;5113334;28;20040;-55
2021/04/09 05:08:30;;;;;;;6.67;5.07;;;;;;;;;;5113421;28;20031;-55
2021/04/09 05:10:57;;;;;;;10.03;5.67;;;;;;;;;;5113318;28;20030;-55
2021/04/09 05:13:23;;;;;;;7.30;5.10;;;;;;;;;;5113366;28;20023;-55
2021/04/09 05:15:50;;;;;;;10.10;5.43;;;;;;;;;;5113324;28;20047;-55
2021/04/09 05:18:17;;;;;;;8.00;5.10;;;;;;;;;;5112871;28;20062;-55
2021/04/09 05:20:43;;;;;;;7.30;4.77;;;;;;;;;;5113234;28;20044;-55
2021/04/09 05:23:11;;;;;;;10.87;6.20;;;;;;;;;;5113223;28;20027;-55
2021/04/09 05:25:38;;;;;;;9.47;6.00;;;;;;;;;;5113259;28;20490;-55
2021/04/09 05:28:05;;;;;;;8.90;5.93;;;;;;;;;;5113193;28;20431;-54
2021/04/09 05:30:31;;;;;;;9.60;5.90;;;;;;;;;;5113079;28;20031;-55
2021/04/09 05:32:58;;;;;;;10.43;5.80;;;;;;;;;;5112845;28;20055;-55
2021/04/09 05:35:25;;;;;;;7.23;4.97;;;;;;;;;;5113054;28;20100;-55
2021/04/09 05:37:52;;;;;;;10.10;5.90;;;;;;;;;;5113030;28;20390;-55
2021/04/09 05:40:19;;;;;;;14.03;6.30;;;;;;;;;;5113110;28;20031;-54
2021/04/09 05:42:46;;;;;;;11.03;6.00;;;;;;;;;;5113103;28;20034;-55
2021/04/09 05:45:13;;;;;;;8.27;6.53;;;;;;;;;;5112837;28;20122;-54
2021/04/09 05:47:55;;;;;;;10.37;6.83;;;;;;;;;;5113076;28;20458;-54
2021/04/09 05:50:22;;;;;;;8.83;6.50;;;;;;;;;;5112676;28;20118;-55
2021/04/09 05:52:48;;;;;;;9.20;6.03;;;;;;;;;;5113029;28;20027;-54
2021/04/09 05:55:15;;;;;;;10.90;6.90;;;;;;;;;;5112969;28;20075;-55
2021/04/09 05:57:42;;;;;;;11.80;7.63;;;;;;;;;;5112970;28;20019;-55
2021/04/09 06:00:10;;;;;;;13.20;8.30;;;;;;;;;;5112874;28;20524;-55
2021/04/09 06:02:37;;;;;;;11.80;8.23;;;;;;;;;;5112761;28;20359;-55
2021/04/09 06:05:04;;;;;;;15.83;8.77;;;;;;;;;;5112874;28;20063;-54
2021/04/09 06:07:31;;;;;;;12.30;7.77;;;;;;;;;;5112824;28;20023;-54
2021/04/09 06:09:58;;;;;;;13.40;7.90;;;;;;;;;;5112781;28;20035;-55
2021/04/09 06:12:25;;;;;;;11.10;7.50;;;;;;;;;;5112753;28;20063;-54
2021/04/09 06:14:52;;;;;;;10.23;6.60;;;;;;;;;;5112762;28;20024;-55
2021/04/09 06:17:19;;;;;;;11.40;7.43;;;;;;;;;;5112770;28;20046;-55
2021/04/09 06:19:49;;;;;;;11.03;7.20;;;;;;;;;;5112729;28;20031;-55
2021/04/09 06:22:19;;;;;;;9.93;6.90;;;;;;;;;;5112618;28;20431;-55
2021/04/09 06:24:46;;;;;;;13.17;7.20;;;;;;;;;;5112691;28;20114;-55
2021/04/09 06:27:12;;;;;;;9.73;6.97;;;;;;;;;;5112686;28;20462;-55
2021/04/09 06:29:39;;;;;;;9.53;6.60;;;;;;;;;;5112638;28;20028;-55
2021/04/09 06:32:06;;;;;;;13.60;7.17;;;;;;;;;;5115705;28;20051;-55
2021/04/09 06:34:33;;;;;;;15.87;7.47;;;;;;;;;;5116262;28;20039;-55
2021/04/09 06:37:00;;;;;;;9.93;7.27;;;;;;;;;;5116213;28;20016;-55
2021/04/09 06:39:26;;;;;;;9.43;6.93;;;;;;;;;;5116161;28;20020;-55
2021/04/09 06:41:53;;;;;;;12.87;7.13;;;;;;;;;;5116149;28;20016;-55
2021/04/09 06:44:20;;;;;;;11.70;6.37;;;;;;;;;;5116010;28;20434;-55
2021/04/09 06:46:47;;;;;;;12.97;7.10;;;;;;;;;;5115988;28;20042;-55
2021/04/09 06:49:14;;;;;;;13.13;6.87;;;;;;;;;;5115975;28;20103;-55
2021/04/09 06:51:45;;;;;;;12.60;7.93;;;;;;;;;;5115937;28;20030;-55
2021/04/09 06:54:13;;;;;;;10.07;6.60;;;;;;;;;;5115895;28;20058;-55
2021/04/09 06:56:40;;;;;;;9.73;6.73;;;;;;;;;;5115867;28;20023;-55
2021/04/09 06:59:07;;;;;;;9.73;7.13;;;;;;;;;;5115841;28;20020;-55
2021/04/09 07:01:35;;;;;;;9.50;6.87;;;;;;;;;;5115581;28;20020;-55
2021/04/09 07:04:02;;;;;;;11.07;7.10;;;;;;;;;;5115664;28;20028;-55
2021/04/09 07:06:30;;;;;;;10.77;7.63;;;;;;;;;;5115755;28;20473;-54
2021/04/09 07:08:57;;;;;;;14.40;8.07;;;;;;;;;;5115630;28;20035;-55
2021/04/09 07:11:23;;;;;;;10.10;7.23;;;;;;;;;;5115482;28;20367;-55
2021/04/09 07:13:51;;;;;;;9.43;6.40;;;;;;;;;;5115541;28;20093;-55
2021/04/09 07:16:18;;;;;;;13.27;6.50;;;;;;;;;;5115461;28;20061;-54
2021/04/09 07:18:52;;;;;;;10.87;6.60;;;;;;;;;;5115427;28;20016;-55
2021/04/09 07:21:21;;;;;;;10.07;5.90;;;;;;;;;;5115437;28;20039;-54
2021/04/09 07:23:48;;;;;;;11.50;6.53;;;;;;;;;;5115290;28;20255;-54
2021/04/09 07:26:33;;;;;;;11.70;7.80;;;;;;;;;;5115236;28;20020;-55
2021/04/09 07:29:00;;;;;;;11.82;7.70;;;;;;;;;;5115144;28;20024;-55
2021/04/09 07:31:32;;;;;;;11.80;6.77;;;;;;;;;;5114934;28;20497;-54
2021/04/09 07:33:59;;;;;;;14.47;8.50;;;;;;;;;;5114718;27;20062;-54
2021/04/09 07:36:26;;;;;;;15.27;8.97;;;;;;;;;;5115035;28;20027;-54
2021/04/09 07:38:53;;;;;;;11.80;8.10;;;;;;;;;;5115029;28;20100;-54
2021/04/09 07:41:20;;;;;;;11.73;8.37;;;;;;;;;;5114700;28;20093;-54
2021/04/09 07:43:46;;;;;;;10.53;6.97;;;;;;;;;;5114876;28;20019;-54
2021/04/09 07:46:29;;;;;;;14.57;7.90;;;;;;;;;;5114834;28;20047;-54
2021/04/09 07:49:03;;;;;;;9.67;7.73;;;;;;;;;;5114751;28;20034;-54
2021/04/09 07:51:30;;;;;;;10.20;7.78;;;;;;;;;;5114585;28;20024;-54
2021/04/09 07:54:08;;;;;;;12.63;8.00;;;;;;;;;;5114658;28;20028;-55
2021/04/09 07:56:49;;;;;;;12.80;7.87;;;;;;;;;;5114593;28;20080;-54
2021/04/09 07:59:35;;;;;;;10.97;8.13;;;;;;;;;;5114663;28;20534;-54
2021/04/09 08:02:02;;;;;;;11.63;8.23;;;;;;;;;;5114342;28;20028;-55
2021/04/09 08:04:43;;;;;;;13.27;8.33;;;;;;;;;;5114658;28;20098;-54
2021/04/09 08:07:29;;;;;;;11.83;8.13;;;;;;;;;;5114440;28;20024;-54
2021/04/09 08:09:56;;;;;;;9.73;7.40;;;;;;;;;;5114303;28;20032;-54
2021/04/09 08:12:29;;;;;;;11.47;7.63;;;;;;;;;;5114319;28;20020;-55
2021/04/09 08:14:56;;;;;;;10.17;8.10;;;;;;;;;;5114286;28;20024;-54
2021/04/09 08:17:26;;;;;;;9.30;7.47;;;;;;;;;;5114241;28;20355;-54
2021/04/09 08:19:56;;;;;;;10.53;7.30;;;;;;;;;;5114181;28;20032;-54
2021/04/09 08:22:23;;;;;;;12.80;7.53;;;;;;;;;;5114140;28;20032;-55
2021/04/09 08:24:50;;;;;;;14.23;8.23;;;;;;;;;;5114065;28;20028;-55
2021/04/09 08:27:17;;;;;;;11.10;8.07;;;;;;;;;;5114345;28;20047;-54
2021/04/09 08:29:44;;;;;;;9.50;7.57;;;;;;;;;;5113989;28;20055;-55
2021/04/09 08:32:11;;;;;;;13.13;7.47;;;;;;;;;;5113425;27;20108;-55
2021/04/09 08:34:38;;;;;;;10.50;7.70;;;;;;;;;;5113930;28;20046;-54
2021/04/09 08:37:05;;;;;;;15.07;8.73;;;;;;;;;;5113892;28;20110;-54
2021/04/09 08:39:33;;;;;;;12.63;8.07;;;;;;;;;;5113836;28;20054;-54
2021/04/09 08:42:00;;;;;;;10.97;8.13;;;;;;;;;;5113747;28;20028;-54
2021/04/09 08:44:27;;;;;;;12.77;8.40;;;;;;;;;;5113777;28;20024;-54
2021/04/09 08:46:54;;;;;;;9.80;7.00;;;;;;;;;;5113733;28;20381;-54
2021/04/09 08:49:21;;;;;;;8.63;6.23;;;;;;;;;;5113751;28;20565;-54
2021/04/09 08:51:50;;;;;;;9.37;6.57;;;;;;;;;;5113596;28;20039;-54
2021/04/09 08:54:17;;;;;;;11.60;7.27;;;;;;;;;;5113062;28;20059;-55
2021/04/09 08:56:44;;;;;;;9.93;7.40;;;;;;;;;;5113500;28;20424;-54
2021/04/09 08:59:11;;;;;;;10.50;7.63;;;;;;;;;;5113645;28;20055;-54
2021/04/09 09:01:38;;;;;;;15.43;8.90;;;;;;;;;;5113503;28;20019;-54
2021/04/09 09:04:23;;;;;;;13.47;8.73;;;;;;;;;;5113343;28;20053;-54
2021/04/09 09:06:50;;;;;;;16.25;8.23;;;;;;;;;;5113425;28;20059;-54
2021/04/09 09:09:35;;;;;;;11.77;7.90;;;;;;;;;;5113441;28;20024;-54
2021/04/09 09:12:02;;;;;;;11.88;7.68;;;;;;;;;;5113340;28;20111;-54
2021/04/09 09:14:35;;;;;;;11.23;7.73;;;;;;;;;;5113350;28;20036;-54
2021/04/09 09:17:19;;;;;;;10.90;8.37;;;;;;;;;;5113280;28;20260;-54
2021/04/09 09:19:46;;;;;;;11.30;7.70;;;;;;;;;;5113361;28;20073;-54
2021/04/09 09:22:17;;;;;;;18.83;8.20;;;;;;;;;;5113235;28;20453;-54
2021/04/09 09:25:02;;;;;;;13.77;8.73;;;;;;;;;;5113215;28;20284;-54
2021/04/09 09:27:47;;;;;;;10.75;7.90;;;;;;;;;;5113251;28;20042;-54
2021/04/09 09:30:35;;;;;;;15.38;8.35;;;;;;;;;;5113168;28;20386;-54
2021/04/09 09:33:21;;;;;;;11.93;8.30;;;;;;;;;;5112885;28;20105;-54
2021/04/09 09:35:55;;;;;;;10.97;7.90;;;;;;;;;;5113466;28;20336;-54
2021/04/09 09:38:48;;;;;;;11.07;8.33;;;;;;;;;;5113386;28;20384;-54
2021/04/09 09:41:33;;;;;;;11.73;8.20;;;;;;;;;;5108870;28;20820;-54
2021/04/09 09:44:00;;;;;;;11.23;8.38;;;;;;;;;;5113004;28;20331;-54
2021/04/09 09:46:45;;;;;;;14.10;8.23;;;;;;;;;;5113112;28;20027;-54
2021/04/09 09:49:12;;;;;;;14.40;7.60;;;;;;;;;;5113048;28;20248;-55
2021/04/09 09:51:38;;;;;;;10.93;7.63;;;;;;;;;;5112891;28;20506;-54
2021/04/09 09:54:05;;;;;;;15.17;8.90;;;;;;;;;;5113001;28;20252;-54
2021/04/09 09:56:32;;;;;;;11.43;8.00;;;;;;;;;;5113006;28;20813;-54
2021/04/09 09:58:59;;;;;;;12.80;8.23;;;;;;;;;;5112888;28;20296;-54
2021/04/09 10:01:26;;;;;;;11.20;7.60;;;;;;;;;;5112779;28;20256;-55
2021/04/09 10:03:53;;;;;;;12.63;8.20;;;;;;;;;;5112978;28;20255;-54
2021/04/09 10:06:26;;;;;;;10.80;7.87;;;;;;;;;;5116744;28;20266;-54
2021/04/09 10:08:53;;;;;;;11.37;7.53;;;;;;;;;;5116971;28;20248;-54
2021/04/09 10:11:21;;;;;;;16.30;9.67;;;;;;;;;;5116624;28;20265;-54
2021/04/09 10:13:50;;;;;;;16.17;10.13;;;;;;;;;;5116712;28;20639;-54
2021/04/09 10:16:20;;;;;;;11.07;8.00;;;;;;;;;;5116595;28;20248;-54
2021/04/09 10:18:53;;;;;;;12.20;8.50;;;;;;;;;;5116554;28;20279;-54
2021/04/09 10:21:32;;;;;;;10.67;7.70;;;;;;;;;;5116549;28;20260;-54
2021/04/09 10:24:06;;;;;;;12.43;8.63;;;;;;;;;;5116456;28;20255;-54
2021/04/09 10:26:34;;;;;;;15.13;9.53;;;;;;;;;;5116411;28;20278;-54
2021/04/09 10:29:01;;;;;;;13.37;9.77;;;;;;;;;;5116396;28;20272;-54
2021/04/09 10:31:28;;;;;;;12.97;9.77;;;;;;;;;;5116304;28;20248;-54
2021/04/09 10:33:59;;;;;;;11.07;8.27;;;;;;;;;;5115978;27;20348;-54
2021/04/09 10:36:29;;;;;;;15.73;10.00;;;;;;;;;;5116180;28;20297;-54
2021/04/09 10:38:57;;;;;;;12.87;8.97;;;;;;;;;;5116244;28;20749;-54
2021/04/09 10:41:25;;;;;;;14.87;9.20;;;;;;;;;;5116043;28;20268;-55
2021/04/09 10:43:59;;;;;;;14.97;9.90;;;;;;;;;;5116061;28;20256;-54
2021/04/09 10:46:28;;;;;;;13.18;9.82;;;;;;;;;;5115997;28;20284;-55
2021/04/09 10:49:08;;;;;;;12.43;9.03;;;;;;;;;;5116272;28;20030;-55
2021/04/09 10:51:36;;;;;;;12.23;9.13;;;;;;;;;;5115885;28;20263;-54
2021/04/09 10:54:03;;;;;;;12.67;9.50;;;;;;;;;;5115986;28;20240;-54
2021/04/09 10:56:30;;;;;;;14.20;10.53;;;;;;;;;;5115898;28;20263;-54
2021/04/09 10:58:57;;;;;;;13.87;10.33;;;;;;;;;;5115869;28;20255;-54
2021/04/09 11:01:25;;;;;;;16.40;9.63;;;;;;;;;;5115578;28;20259;-54
2021/04/09 11:03:53;;;;;;;11.63;8.70;;;;;;;;;;5115663;28;20254;-55
2021/04/09 11:06:21;;;;;;;16.07;9.33;;;;;;;;;;5115552;28;20295;-55
2021/04/09 11:08:56;;;;;;;14.80;9.30;;;;;;;;;;5115516;28;20244;-54
2021/04/09 11:11:28;;;;;;;13.00;9.80;;;;;;;;;;5115648;28;20588;-55
2021/04/09 11:14:00;;;;;;;13.87;10.40;;;;;;;;;;5115648;28;20020;-55
2021/04/09 11:16:27;;;;;;;13.20;9.63;;;;;;;;;;5114909;28;20610;-55
2021/04/09 11:18:55;;;;;;;12.90;9.40;;;;;;;;;;5115409;28;20258;-54
2021/04/09 11:21:40;;;;;;;14.47;9.80;;;;;;;;;;5115639;28;20297;-54
2021/04/09 11:24:07;;;;;;;14.98;9.88;;;;;;;;;;5115206;28;20262;-54
2021/04/09 11:26:35;;;;;;;12.40;9.73;;;;;;;;;;5115287;28;20526;-54
2021/04/09 11:29:02;;;;;;;12.13;8.73;;;;;;;;;;5115532;28;20266;-54
2021/04/09 11:31:29;;;;;;;9.90;8.40;;;;;;;;;;5114953;28;20292;-54
2021/04/09 11:34:03;;;;;;;12.33;9.27;;;;;;;;;;5114897;28;20312;-55
2021/04/09 11:36:37;;;;;;;12.60;9.63;;;;;;;;;;5115026;28;20264;-54
2021/04/09 11:39:06;;;;;;;12.30;9.27;;;;;;;;;;5115088;28;20031;-54
2021/04/09 11:41:34;;;;;;;12.57;9.10;;;;;;;;;;5114792;28;20028;-54
2021/04/09 11:44:01;;;;;;;15.10;9.07;;;;;;;;;;5114701;28;20580;-54
2021/04/09 11:46:37;;;;;;;11.47;8.00;;;;;;;;;;5114824;28;20607;-54
2021/04/09 11:49:05;;;;;;;13.47;8.93;;;;;;;;;;5115100;28;20249;-55
2021/04/09 11:51:34;;;;;;;11.40;9.20;;;;;;;;;;5114950;28;20284;-54
2021/04/09 11:54:02;;;;;;;12.73;8.50;;;;;;;;;;5114727;28;20283;-54
2021/04/09 11:56:38;;;;;;;14.57;9.33;;;;;;;;;;5114643;28;20268;-54
2021/04/09 11:59:12;;;;;;;14.80;8.33;;;;;;;;;;5114612;28;20286;-54
2021/04/09 12:01:52;;;;;;;11.40;8.93;;;;;;;;;;5114454;28;20252;-54
2021/04/09 12:04:38;;;;;;;15.47;9.93;;;;;;;;;;5114399;28;20383;-54
2021/04/09 12:07:06;;;;;;;15.87;10.60;;;;;;;;;;5114437;28;20351;-54
2021/04/09 12:09:33;;;;;;;11.43;8.80;;;;;;;;;;5114356;28;20667;-54
2021/04/09 12:11:59;;;;;;;14.97;9.77;;;;;;;;;;5114229;28;20302;-54
2021/04/09 12:14:40;;;;;;;16.80;9.70;;;;;;;;;;5114296;28;20263;-53
2021/04/09 12:17:08;;;;;;;14.97;9.67;;;;;;;;;;5114235;28;20335;-54
2021/04/09 12:19:35;;;;;;;11.57;8.10;;;;;;;;;;5114302;28;20260;-54
2021/04/09 12:22:02;;;;;;;13.63;8.90;;;;;;;;;;5113984;28;20731;-54
2021/04/09 12:24:29;;;;;;;13.47;10.33;;;;;;;;;;5113963;28;20619;-54
2021/04/09 12:26:56;;;;;;;13.87;9.43;;;;;;;;;;5113877;28;20370;-54
2021/04/09 12:29:23;;;;;;;12.23;9.23;;;;;;;;;;5113261;28;20316;-54
2021/04/09 12:31:50;;;;;;;12.10;9.33;;;;;;;;;;5113767;28;20336;-54
2021/04/09 12:34:19;;;;;;;13.53;8.33;;;;;;;;;;5113539;27;20288;-54
2021/04/09 12:36:46;;;;;;;10.10;8.00;;;;;;;;;;5114014;28;20279;-54
2021/04/09 12:39:13;;;;;;;10.43;8.20;;;;;;;;;;5113933;28;20255;-54
2021/04/09 12:41:41;;;;;;;12.73;8.30;;;;;;;;;;5113839;28;20333;-54
2021/04/09 12:44:08;;;;;;;15.33;8.93;;;;;;;;;;5113730;28;20790;-54
2021/04/09 12:46:36;;;;;;;13.27;9.00;;;;;;;;;;5113699;28;20599;-54
2021/04/09 12:49:02;;;;;;;13.17;9.87;;;;;;;;;;5113695;28;20289;-54
2021/04/09 12:51:30;;;;;;;11.37;8.37;;;;;;;;;;5113561;28;20266;-54
2021/04/09 12:53:57;;;;;;;15.30;10.13;;;;;;;;;;5113730;28;20239;-54
2021/04/09 12:56:24;;;;;;;14.90;10.67;;;;;;;;;;5113673;28;20306;-54
2021/04/09 12:58:50;;;;;;;16.87;9.87;;;;;;;;;;5113482;28;20343;-55
2021/04/09 13:01:17;;;;;;;16.00;10.27;;;;;;;;;;5113366;28;20297;-54
2021/04/09 13:03:44;;;;;;;18.77;10.60;;;;;;;;;;5113619;28;20244;-54
2021/04/09 13:06:12;;;;;;;12.87;10.13;;;;;;;;;;5113329;28;20762;-54
2021/04/09 13:08:39;;;;;;;18.43;12.03;;;;;;;;;;5113428;28;20255;-54
2021/04/09 13:11:06;;;;;;;14.23;10.77;;;;;;;;;;5113302;28;20248;-57
2021/04/09 13:13:33;;;;;;;21.33;11.23;;;;;;;;;;5113360;28;20301;-54
2021/04/09 13:16:01;;;;;;;17.67;12.17;;;;;;;;;;5113233;28;20291;-54
2021/04/09 13:18:32;;;;;;;13.83;10.97;;;;;;;;;;5113349;28;20248;-54
2021/04/09 13:20:59;;;;;;;15.20;11.00;;;;;;;;;;5113141;28;20259;-54
2021/04/09 13:23:26;;;;;;;17.20;12.27;;;;;;;;;;5113335;28;20272;-54
2021/04/09 13:25:53;;;;;;;17.37;11.90;;;;;;;;;;5113094;28;20292;-54
2021/04/09 13:28:21;;;;;;;16.97;11.93;;;;;;;;;;5113131;28;20607;-54
2021/04/09 13:30:55;;;;;;;14.80;11.83;;;;;;;;;;5113106;28;20252;-54
2021/04/09 13:33:43;;;;;;;16.60;11.48;;;;;;;;;;5112478;28;20047;-54
2021/04/09 13:36:11;;;;;;;18.80;12.47;;;;;;;;;;5113172;28;20028;-55
2021/04/09 13:38:39;;;;;;;20.07;12.73;;;;;;;;;;5113108;28;20386;-55
2021/04/09 13:41:06;;;;;;;14.63;11.67;;;;;;;;;;5117271;28;20027;-54
2021/04/09 13:43:33;;;;;;;18.07;12.63;;;;;;;;;;5117193;28;20078;-54
2021/04/09 13:46:00;;;;;;;17.23;12.70;;;;;;;;;;5117241;28;20043;-54
2021/04/09 13:48:27;;;;;;;18.97;12.87;;;;;;;;;;5117078;28;20024;-54
2021/04/09 13:50:54;;;;;;;14.60;10.93;;;;;;;;;;5116998;28;20034;-54
2021/04/09 13:53:21;;;;;;;17.40;12.27;;;;;;;;;;5117054;28;20027;-54
2021/04/09 13:55:48;;;;;;;16.57;12.20;;;;;;;;;;5117035;28;20478;-54
2021/04/09 13:58:15;;;;;;;21.63;11.67;;;;;;;;;;5117001;28;20028;-55
2021/04/09 14:00:42;;;;;;;18.17;13.77;;;;;;;;;;5116768;28;20390;-55
2021/04/09 14:03:10;;;;;;;16.73;12.00;;;;;;;;;;5116926;28;20028;-55
2021/04/09 14:05:37;;;;;;;17.80;11.10;;;;;;;;;;5116834;28;20274;-54
2021/04/09 14:08:03;;;;;;;16.77;11.67;;;;;;;;;;5116818;28;20038;-55
2021/04/09 14:10:30;;;;;;;16.13;10.97;;;;;;;;;;5116647;28;20027;-55
2021/04/09 14:12:57;;;;;;;15.83;11.47;;;;;;;;;;5116666;28;20031;-54
2021/04/09 14:15:24;;;;;;;15.03;9.77;;;;;;;;;;5116674;28;20039;-55
2021/04/09 14:17:51;;;;;;;12.60;9.37;;;;;;;;;;5116728;28;20501;-55
2021/04/09 14:20:19;;;;;;;15.93;10.63;;;;;;;;;;5116815;28;20136;-55
2021/04/09 14:22:46;;;;;;;17.40;10.77;;;;;;;;;;5116491;28;20047;-55
2021/04/09 14:25:13;;;;;;;15.67;10.90;;;;;;;;;;5116378;28;20030;-55
2021/04/09 14:27:40;;;;;;;15.37;10.00;;;;;;;;;;5116757;28;20034;-55
2021/04/09 14:30:07;;;;;;;18.67;10.57;;;;;;;;;;5116345;28;20023;-55
2021/04/09 14:32:34;;;;;;;14.03;10.07;;;;;;;;;;5116185;28;20026;-55
2021/04/09 14:35:01;;;;;;;15.47;9.67;;;;;;;;;;5116020;27;20048;-55
2021/04/09 14:37:28;;;;;;;14.70;10.43;;;;;;;;;;5116230;28;20024;-55
2021/04/09 14:39:54;;;;;;;12.33;10.07;;;;;;;;;;5116065;28;20023;-55
2021/04/09 14:42:22;;;;;;;15.90;11.03;;;;;;;;;;5116147;28;20027;-55